createdAt,value
2023-03-04T00:01:27.635Z,41.88
2023-03-04T00:03:55.697Z,41.92
2023-03-04T00:06:23.482Z,41.69
2023-03-04T00:08:51.419Z,41.65
2023-03-04T00:11:19.420Z,41.66
2023-03-04T00:13:48.838Z,41.66
2023-03-04T00:16:17.248Z,41.57
2023-03-04T00:18:45.308Z,41.61
2023-03-04T00:21:13.161Z,41.51
2023-03-04T00:23:41.306Z,41.49
2023-03-04T00:26:09.598Z,41.39
2023-03-04T00:28:38.603Z,41.48
2023-03-04T00:31:08.013Z,41.48
2023-03-04T00:33:36.755Z,41.53
2023-03-04T00:36:05.831Z,41.27
2023-03-04T00:38:34.182Z,41.30
2023-03-04T00:41:03.984Z,41.38
2023-03-04T00:43:32.564Z,41.33
2023-03-04T00:46:00.706Z,41.35
2023-03-04T00:48:30.190Z,41.28
2023-03-04T00:50:58.081Z,41.25
2023-03-04T00:53:25.876Z,41.14
2023-03-04T00:55:53.747Z,41.14
2023-03-04T00:58:21.669Z,41.20
2023-03-04T01:00:49.446Z,41.38
2023-03-04T01:03:17.554Z,41.16
2023-03-04T01:05:46.749Z,41.13
2023-03-04T01:08:14.582Z,41.09
2023-03-04T01:10:42.388Z,41.05
2023-03-04T01:13:10.165Z,41.14
2023-03-04T01:15:37.924Z,41.15
2023-03-04T01:18:06.699Z,41.22
2023-03-04T01:20:34.450Z,41.18
2023-03-04T01:23:05.341Z,41.12
2023-03-04T01:25:34.261Z,40.92
2023-03-04T01:28:02.322Z,41.08
2023-03-04T01:30:30.437Z,41.11
2023-03-04T01:32:59.061Z,41.29
2023-03-04T01:35:27.440Z,41.13
2023-03-04T01:37:55.293Z,41.09
2023-03-04T01:40:24.772Z,40.88
2023-03-04T01:42:52.755Z,41.09
2023-03-04T01:45:21.584Z,41.12
2023-03-04T01:47:51.256Z,40.88
2023-03-04T01:50:23.625Z,41.06
2023-03-04T01:52:51.657Z,41.23
2023-03-04T01:55:21.545Z,41.03
2023-03-04T01:57:52.455Z,41.19
2023-03-04T02:00:27.442Z,41.13
2023-03-04T02:02:58.265Z,41.08
2023-03-04T02:05:28.163Z,41.11
2023-03-04T02:07:58.010Z,41.11
2023-03-04T02:10:26.131Z,41.02
2023-03-04T02:12:55.744Z,41.08
2023-03-04T02:15:24.651Z,41.04
2023-03-04T02:17:53.397Z,41.09
2023-03-04T02:20:31.302Z,41.11
2023-03-04T02:23:04.873Z,41.17
2023-03-04T02:25:40.521Z,41.07
2023-03-04T02:28:09.897Z,41.03
2023-03-04T02:30:38.147Z,41.08
2023-03-04T02:33:06.400Z,40.93
2023-03-04T02:35:34.495Z,41.00
2023-03-04T02:38:02.702Z,41.01
2023-03-04T02:40:34.363Z,41.08
2023-03-04T02:43:02.820Z,40.86
2023-03-04T02:45:42.429Z,41.14
2023-03-04T02:48:11.918Z,41.01
2023-03-04T02:50:43.861Z,41.14
2023-03-04T02:53:12.230Z,41.20
2023-03-04T02:55:40.226Z,40.99
2023-03-04T02:58:08.206Z,41.00
2023-03-04T03:00:37.338Z,41.08
2023-03-04T03:03:08.555Z,41.05
2023-03-04T03:05:38.081Z,41.01
2023-03-04T03:08:07.503Z,40.79
2023-03-04T03:10:35.807Z,41.07
2023-03-04T03:13:04.838Z,41.15
2023-03-04T03:15:33.497Z,41.08
2023-03-04T03:18:01.573Z,41.13
2023-03-04T03:20:30.971Z,41.29
2023-03-04T03:22:59.125Z,41.06
2023-03-04T03:25:27.086Z,41.03
2023-03-04T03:27:54.962Z,41.11
2023-03-04T03:30:23.158Z,41.15
2023-03-04T03:32:51.303Z,41.18
2023-03-04T03:35:19.621Z,41.36
2023-03-04T03:37:49.964Z,41.13
2023-03-04T03:40:18.028Z,41.06
2023-03-04T03:42:45.771Z,40.96
2023-03-04T03:45:13.711Z,41.11
2023-03-04T03:47:41.494Z,41.21
2023-03-04T03:50:10.182Z,41.21
2023-03-04T03:52:37.882Z,41.13
2023-03-04T03:55:07.687Z,40.89
2023-03-04T03:57:35.437Z,41.03
2023-03-04T04:00:03.422Z,40.92
2023-03-04T04:02:40.453Z,40.89
2023-03-04T04:05:10.481Z,40.95
2023-03-04T04:07:39.038Z,40.96
2023-03-04T04:10:09.656Z,40.87
2023-03-04T04:12:37.421Z,40.94
2023-03-04T04:15:06.529Z,40.84
2023-03-04T04:17:34.501Z,40.65
2023-03-04T04:20:02.634Z,40.81
2023-03-04T04:22:30.833Z,40.83
2023-03-04T04:24:58.916Z,40.82
2023-03-04T04:27:28.184Z,40.79
2023-03-04T04:29:56.063Z,40.91
2023-03-04T04:32:24.051Z,40.99
2023-03-04T04:34:51.904Z,40.87
2023-03-04T04:37:19.748Z,40.86
2023-03-04T04:39:47.814Z,40.87
2023-03-04T04:42:15.655Z,40.91
2023-03-04T04:44:44.906Z,40.96
2023-03-04T04:47:12.866Z,40.59
2023-03-04T04:49:40.910Z,41.17
2023-03-04T04:52:08.669Z,40.93
2023-03-04T04:54:36.454Z,40.97
2023-03-04T04:57:04.320Z,40.99
2023-03-04T04:59:32.040Z,40.90
2023-03-04T05:02:01.229Z,40.97
2023-03-04T05:04:29.221Z,41.01
2023-03-04T05:06:56.956Z,41.07
2023-03-04T05:09:24.777Z,41.07
2023-03-04T05:11:52.627Z,41.01
2023-03-04T05:14:20.594Z,40.97
2023-03-04T05:16:48.514Z,41.04
2023-03-04T05:19:17.715Z,41.14
2023-03-04T05:21:45.544Z,40.93
2023-03-04T05:24:13.521Z,41.17
2023-03-04T05:26:41.452Z,41.12
2023-03-04T05:29:09.356Z,41.08
2023-03-04T05:31:37.208Z,40.98
2023-03-04T05:34:05.424Z,41.06
2023-03-04T05:36:35.165Z,41.17
2023-03-04T05:39:03.508Z,41.06
2023-03-04T05:41:31.427Z,41.12
2023-03-04T05:43:59.235Z,41.13
2023-03-04T05:46:27.126Z,41.09
2023-03-04T05:48:55.757Z,41.20
2023-03-04T05:51:24.367Z,41.09
2023-03-04T05:53:53.594Z,41.13
2023-03-04T05:56:21.822Z,41.05
2023-03-04T05:58:49.891Z,41.02
2023-03-04T06:01:18.400Z,41.08
2023-03-04T06:03:48.530Z,41.08
2023-03-04T06:06:17.768Z,41.10
2023-03-04T06:08:45.610Z,40.91
2023-03-04T06:11:14.739Z,41.10
2023-03-04T06:13:42.589Z,40.97
2023-03-04T06:16:10.958Z,40.95
2023-03-04T06:18:39.375Z,40.93
2023-03-04T06:21:07.356Z,41.02
2023-03-04T06:23:35.392Z,41.03
2023-03-04T06:26:03.690Z,41.20
2023-03-04T06:28:33.190Z,41.08
2023-03-04T06:31:01.188Z,41.11
2023-03-04T06:33:29.260Z,41.13
2023-03-04T06:35:58.123Z,41.09
2023-03-04T06:38:26.586Z,40.69
2023-03-04T06:40:57.335Z,41.20
2023-03-04T06:43:25.533Z,41.26
2023-03-04T06:45:55.103Z,41.19
2023-03-04T06:48:23.209Z,41.17
2023-03-04T06:50:51.065Z,41.25
2023-03-04T06:53:19.044Z,41.23
2023-03-04T06:55:47.699Z,41.16
2023-03-04T06:58:17.461Z,41.26
2023-03-04T07:00:45.904Z,41.16
2023-03-04T07:03:15.490Z,41.25
2023-03-04T07:05:44.176Z,41.14
2023-03-04T07:08:12.065Z,41.15
2023-03-04T07:10:40.122Z,41.37
2023-03-04T07:13:07.983Z,41.19
2023-03-04T07:15:36.257Z,41.27
2023-03-04T07:18:04.220Z,41.16
2023-03-04T07:20:33.566Z,41.28
2023-03-04T07:23:01.412Z,41.34
2023-03-04T07:25:29.128Z,41.32
2023-03-04T07:27:56.930Z,41.30
2023-03-04T07:30:24.794Z,41.35
2023-03-04T07:32:52.573Z,41.31
2023-03-04T07:35:20.408Z,41.21
2023-03-04T07:37:50.076Z,41.42
2023-03-04T07:40:18.150Z,41.40
2023-03-04T07:42:50.855Z,41.62
2023-03-04T07:45:18.895Z,41.57
2023-03-04T07:47:46.838Z,41.46
2023-03-04T07:50:18.418Z,41.53
2023-03-04T07:52:48.023Z,41.51
2023-03-04T07:55:17.956Z,41.47
2023-03-04T07:57:47.949Z,41.58
2023-03-04T08:00:18.094Z,41.80
2023-03-04T08:02:46.074Z,41.67
2023-03-04T08:05:14.107Z,41.72
2023-03-04T08:07:42.244Z,41.79
2023-03-04T08:10:11.289Z,41.90
2023-03-04T08:12:40.491Z,42.03
2023-03-04T08:15:09.703Z,41.93
2023-03-04T08:17:37.543Z,42.36
2023-03-04T08:20:06.232Z,41.94
2023-03-04T08:22:34.102Z,42.21
2023-03-04T08:25:01.976Z,42.21
2023-03-04T08:27:29.906Z,42.53
2023-03-04T08:29:59.254Z,42.27
2023-03-04T08:32:27.283Z,42.33
2023-03-04T08:34:56.293Z,42.39
2023-03-04T08:37:24.278Z,42.42
2023-03-04T08:39:52.064Z,42.50
2023-03-04T08:42:20.193Z,42.50
2023-03-04T08:44:48.117Z,42.60
2023-03-04T08:47:17.822Z,42.72
2023-03-04T08:49:45.623Z,42.66
2023-03-04T08:52:13.477Z,42.86
2023-03-04T08:54:41.279Z,43.17
2023-03-04T08:57:09.313Z,43.00
2023-03-04T08:59:38.439Z,43.03
2023-03-04T09:02:06.627Z,43.14
2023-03-04T09:04:36.611Z,43.16
2023-03-04T09:07:04.823Z,43.11
2023-03-04T09:09:34.356Z,42.96
2023-03-04T09:12:03.538Z,43.11
2023-03-04T09:14:32.886Z,43.13
2023-03-04T09:17:01.026Z,42.94
2023-03-04T09:19:28.885Z,43.14
2023-03-04T09:21:59.365Z,42.79
2023-03-04T09:24:27.358Z,42.88
2023-03-04T09:26:56.063Z,42.68
2023-03-04T09:29:24.784Z,42.64
2023-03-04T09:31:52.769Z,42.70
2023-03-04T09:34:20.830Z,42.65
2023-03-04T09:36:48.885Z,42.72
2023-03-04T09:39:20.259Z,42.78
2023-03-04T09:41:53.030Z,42.96
2023-03-04T09:44:25.361Z,43.24
2023-03-04T09:46:56.784Z,42.95
2023-03-04T09:49:25.738Z,43.24
2023-03-04T09:52:00.149Z,43.28
2023-03-04T09:54:49.393Z,43.48
2023-03-04T09:57:28.692Z,43.63
2023-03-04T10:00:07.924Z,43.47
2023-03-04T10:02:48.072Z,43.61
2023-03-04T10:05:20.530Z,43.34
2023-03-04T10:07:57.168Z,43.47
2023-03-04T10:10:30.273Z,43.50
2023-03-04T10:12:59.415Z,43.32
2023-03-04T10:15:35.167Z,43.62
2023-03-04T10:18:08.359Z,43.49
2023-03-04T10:20:47.825Z,43.91
2023-03-04T10:23:19.813Z,43.38
2023-03-04T10:25:53.701Z,43.50
2023-03-04T10:28:26.527Z,43.63
2023-03-04T10:31:00.771Z,43.60
2023-03-04T10:33:31.585Z,43.46
2023-03-04T10:36:03.689Z,43.67
2023-03-04T10:38:34.342Z,43.45
2023-03-04T10:41:14.172Z,43.80
2023-03-04T10:43:50.765Z,43.57
2023-03-04T10:46:19.072Z,43.26
2023-03-04T10:48:47.114Z,43.43
2023-03-04T10:51:21.114Z,43.47
2023-03-04T10:53:51.600Z,43.16
2023-03-04T10:56:39.161Z,43.42
2023-03-04T10:59:36.528Z,43.31
2023-03-04T11:02:16.852Z,43.21
2023-03-04T11:04:52.952Z,43.34
2023-03-04T11:07:21.378Z,43.21
2023-03-04T11:09:49.458Z,43.15
2023-03-04T11:12:22.251Z,43.22
2023-03-04T11:14:51.808Z,43.01
2023-03-04T11:17:26.034Z,43.04
2023-03-04T11:19:59.337Z,42.93
2023-03-04T11:22:29.878Z,42.88
2023-03-04T11:25:01.406Z,42.84
2023-03-04T11:27:46.099Z,42.97
2023-03-04T11:30:35.630Z,42.98
2023-03-04T11:33:13.242Z,42.95
2023-03-04T11:35:49.429Z,42.84
2023-03-04T11:38:20.635Z,43.00
2023-03-04T11:40:53.402Z,42.98
2023-03-04T11:43:29.748Z,42.85
2023-03-04T11:46:37.788Z,42.97
2023-03-04T11:49:19.495Z,42.77
2023-03-04T11:51:57.261Z,42.82
2023-03-04T11:54:33.546Z,42.65
2023-03-04T11:57:07.305Z,42.77
2023-03-04T12:00:04.534Z,42.79
2023-03-04T12:02:50.015Z,42.83
2023-03-04T12:05:27.835Z,42.58
2023-03-04T12:08:21.295Z,42.78
2023-03-04T12:10:52.883Z,43.08
2023-03-04T12:13:37.360Z,42.81
2023-03-04T12:16:21.084Z,42.48
2023-03-04T12:19:07.268Z,42.57
2023-03-04T12:21:57.767Z,42.28
2023-03-04T12:24:49.812Z,42.30
2023-03-04T12:27:25.651Z,42.27
2023-03-04T12:29:59.809Z,42.17
2023-03-04T12:32:41.264Z,42.50
2023-03-04T12:35:36.601Z,42.47
2023-03-04T12:38:27.521Z,42.31
2023-03-04T12:41:04.269Z,42.35
2023-03-04T12:43:41.841Z,42.42
2023-03-04T12:46:23.252Z,42.55
2023-03-04T12:49:17.152Z,42.17
2023-03-04T12:51:52.476Z,42.60
2023-03-04T12:54:29.133Z,42.45
2023-03-04T12:57:01.739Z,42.62
2023-03-04T12:59:35.988Z,42.43
2023-03-04T13:02:22.582Z,42.71
2023-03-04T13:04:59.689Z,42.60
2023-03-04T13:07:40.736Z,42.38
2023-03-04T13:10:12.592Z,42.54
2023-03-04T13:12:51.856Z,42.61
2023-03-04T13:15:35.760Z,42.69
2023-03-04T13:18:25.617Z,42.50
2023-03-04T13:21:17.489Z,42.70
2023-03-04T13:23:45.540Z,42.53
2023-03-04T13:26:29.373Z,42.63
2023-03-04T13:29:33.176Z,42.86
2023-03-04T13:32:03.900Z,42.78
2023-03-04T13:34:54.042Z,42.90
2023-03-04T13:37:35.283Z,43.00
2023-03-04T13:40:37.489Z,42.51
2023-03-04T13:43:27.574Z,42.68
2023-03-04T13:45:56.279Z,42.26
2023-03-04T13:48:36.476Z,43.06
2023-03-04T13:51:05.124Z,42.87
2023-03-04T13:53:53.208Z,43.34
2023-03-04T13:56:32.819Z,43.27
2023-03-04T13:59:12.529Z,43.33
2023-03-04T14:01:52.550Z,43.42
2023-03-04T14:04:23.236Z,43.04
2023-03-04T14:06:52.512Z,43.22
2023-03-04T14:09:23.701Z,43.33
2023-03-04T14:11:53.701Z,43.20
2023-03-04T14:14:23.923Z,43.03
2023-03-04T14:16:54.671Z,43.09
2023-03-04T14:19:26.367Z,43.25
2023-03-04T14:21:54.360Z,43.12
2023-03-04T14:24:25.057Z,43.29
2023-03-04T14:27:11.285Z,43.46
2023-03-04T14:29:39.339Z,43.25
2023-03-04T14:32:08.552Z,43.28
2023-03-04T14:34:39.974Z,43.13
2023-03-04T14:37:22.750Z,43.26
2023-03-04T14:39:56.993Z,43.19
2023-03-04T14:42:28.252Z,43.16
2023-03-04T14:44:59.420Z,43.17
2023-03-04T14:47:38.041Z,43.49
2023-03-04T14:50:07.814Z,43.24
2023-03-04T14:52:39.667Z,43.34
2023-03-04T14:55:22.514Z,43.73
2023-03-04T14:57:58.167Z,43.40
2023-03-04T15:00:33.499Z,43.17
2023-03-04T15:03:03.118Z,43.25
2023-03-04T15:05:33.546Z,43.15
2023-03-04T15:08:03.835Z,43.09
2023-03-04T15:10:35.729Z,43.06
2023-03-04T15:13:05.582Z,43.21
2023-03-04T15:15:40.824Z,43.41
2023-03-04T15:18:23.772Z,43.66
2023-03-04T15:21:00.446Z,43.68
2023-03-04T15:23:29.544Z,43.26
2023-03-04T15:26:01.825Z,43.49
2023-03-04T15:28:35.047Z,43.63
2023-03-04T15:31:03.718Z,43.17
2023-03-04T15:33:31.563Z,43.38
2023-03-04T15:36:01.845Z,43.47
2023-03-04T15:38:30.636Z,43.24
2023-03-04T15:41:00.025Z,43.61
2023-03-04T15:43:27.874Z,43.59
2023-03-04T15:45:55.718Z,43.73
2023-03-04T15:48:23.513Z,43.68
2023-03-04T15:50:55.657Z,43.44
2023-03-04T15:53:29.575Z,43.80
2023-03-04T15:55:57.482Z,43.60
2023-03-04T15:58:27.312Z,43.83
2023-03-04T16:00:55.096Z,43.88
2023-03-04T16:03:23.209Z,43.70
2023-03-04T16:05:53.877Z,43.90
2023-03-04T16:08:25.109Z,43.81
2023-03-04T16:10:53.914Z,43.93
2023-03-04T16:13:24.710Z,43.72
2023-03-04T16:15:53.964Z,44.01
2023-03-04T16:18:21.809Z,44.04
2023-03-04T16:20:52.087Z,44.06
2023-03-04T16:23:23.192Z,44.15
2023-03-04T16:25:53.639Z,44.10
2023-03-04T16:28:21.924Z,44.15
2023-03-04T16:30:50.759Z,44.00
2023-03-04T16:33:20.041Z,43.95
2023-03-04T16:35:48.288Z,44.10
2023-03-04T16:38:26.035Z,44.29
2023-03-04T16:40:54.433Z,44.35
2023-03-04T16:43:22.569Z,44.19
2023-03-04T16:45:50.538Z,44.21
2023-03-04T16:48:21.083Z,44.34
2023-03-04T16:50:49.369Z,44.12
2023-03-04T16:53:25.555Z,44.50
2023-03-04T16:55:53.605Z,44.15
2023-03-04T16:58:21.697Z,44.25
2023-03-04T17:00:49.775Z,44.15
2023-03-04T17:03:17.671Z,43.75
2023-03-04T17:05:47.867Z,44.13
2023-03-04T17:08:15.677Z,43.70
2023-03-04T17:10:43.579Z,43.69
2023-03-04T17:13:11.516Z,43.70
2023-03-04T17:15:40.988Z,43.64
2023-03-04T17:18:08.751Z,43.74
2023-03-04T17:20:36.631Z,43.57
2023-03-04T17:23:06.013Z,43.82
2023-03-04T17:25:34.869Z,43.64
2023-03-04T17:28:07.264Z,43.57
2023-03-04T17:30:35.565Z,43.60
2023-03-04T17:33:03.821Z,43.17
2023-03-04T17:35:31.714Z,43.40
2023-03-04T17:37:59.586Z,43.53
2023-03-04T17:40:28.956Z,43.10
2023-03-04T17:42:59.366Z,43.25
2023-03-04T17:45:27.336Z,43.08
2023-03-04T17:47:55.243Z,43.09
2023-03-04T17:50:23.314Z,42.93
2023-03-04T17:52:51.194Z,42.92
2023-03-04T17:55:19.349Z,42.69
2023-03-04T17:57:49.083Z,42.77
2023-03-04T18:00:18.268Z,42.70
2023-03-04T18:02:46.077Z,42.58
2023-03-04T18:05:13.989Z,42.67
2023-03-04T18:07:41.830Z,42.14
2023-03-04T18:10:10.793Z,41.78
2023-03-04T18:12:38.834Z,41.89
2023-03-04T18:15:09.267Z,41.72
2023-03-04T18:17:37.221Z,41.64
2023-03-04T18:20:06.304Z,41.53
2023-03-04T18:22:34.184Z,41.57
2023-03-04T18:25:02.154Z,41.61
2023-03-04T18:27:29.921Z,41.68
2023-03-04T18:29:58.693Z,41.44
2023-03-04T18:32:28.483Z,41.55
2023-03-04T18:34:56.341Z,41.69
2023-03-04T18:37:24.171Z,41.57
2023-03-04T18:39:52.067Z,41.68
2023-03-04T18:42:20.120Z,41.59
2023-03-04T18:44:48.085Z,41.57
2023-03-04T18:47:15.992Z,41.63
2023-03-04T18:49:47.552Z,41.44
2023-03-04T18:52:15.828Z,41.37
2023-03-04T18:54:43.680Z,41.31
2023-03-04T18:57:12.963Z,41.40
2023-03-04T18:59:45.174Z,41.23
2023-03-04T19:02:20.056Z,41.04
2023-03-04T19:04:50.551Z,41.18
2023-03-04T19:07:18.358Z,41.28
2023-03-04T19:09:46.112Z,41.53
2023-03-04T19:12:13.924Z,41.33
2023-03-04T19:14:41.785Z,41.21
2023-03-04T19:17:10.841Z,41.38
2023-03-04T19:19:38.685Z,41.23
2023-03-04T19:22:07.850Z,41.35
2023-03-04T19:24:35.941Z,41.26
2023-03-04T19:27:05.276Z,41.39
2023-03-04T19:29:33.033Z,41.24
2023-03-04T19:32:00.969Z,41.23
2023-03-04T19:34:28.704Z,41.18
2023-03-04T19:36:56.438Z,41.17
2023-03-04T19:39:25.703Z,41.04
2023-03-04T19:41:53.504Z,40.74
2023-03-04T19:44:21.422Z,40.69
2023-03-04T19:46:49.200Z,40.57
2023-03-04T19:49:16.965Z,40.52
2023-03-04T19:51:44.671Z,40.44
2023-03-04T19:54:12.484Z,40.31
2023-03-04T19:56:41.593Z,40.07
2023-03-04T19:59:09.365Z,40.10
2023-03-04T20:01:38.558Z,40.30
2023-03-04T20:04:09.141Z,40.15
2023-03-04T20:06:37.897Z,40.16
2023-03-04T20:09:06.079Z,40.00
2023-03-04T20:11:39.237Z,40.07
2023-03-04T20:14:13.577Z,39.95
2023-03-04T20:16:41.744Z,40.11
2023-03-04T20:19:09.506Z,40.20
2023-03-04T20:21:37.301Z,39.89
2023-03-04T20:24:05.849Z,40.00
2023-03-04T20:26:34.238Z,40.21
2023-03-04T20:29:02.567Z,40.07
2023-03-04T20:31:37.494Z,40.03
2023-03-04T20:34:06.053Z,40.42
2023-03-04T20:36:38.483Z,40.03
2023-03-04T20:39:21.531Z,40.14
2023-03-04T20:41:55.341Z,40.06
2023-03-04T20:44:23.254Z,40.06
2023-03-04T20:46:53.457Z,40.07
2023-03-04T20:49:24.387Z,40.06
2023-03-04T20:51:53.392Z,40.23
2023-03-04T20:54:22.062Z,40.40
2023-03-04T20:56:50.825Z,40.25
2023-03-04T20:59:19.425Z,40.18
2023-03-04T21:01:48.839Z,40.33
2023-03-04T21:04:18.461Z,40.36
2023-03-04T21:06:48.378Z,40.41
2023-03-04T21:09:18.348Z,40.46
2023-03-04T21:11:47.104Z,40.38
2023-03-04T21:14:19.332Z,40.53
2023-03-04T21:16:47.464Z,40.33
2023-03-04T21:19:17.624Z,40.36
2023-03-04T21:21:51.549Z,40.41
2023-03-04T21:24:22.467Z,40.49
2023-03-04T21:26:50.548Z,40.61
2023-03-04T21:29:20.448Z,40.56
2023-03-04T21:31:51.346Z,40.51
2023-03-04T21:34:22.321Z,40.63
2023-03-04T21:36:52.162Z,40.64
2023-03-04T21:39:23.246Z,40.68
2023-03-04T21:41:51.202Z,40.77
2023-03-04T21:44:27.775Z,40.78
2023-03-04T21:47:01.962Z,40.83
2023-03-04T21:49:29.799Z,40.89
2023-03-04T21:51:58.988Z,40.79
2023-03-04T21:54:27.077Z,40.96
2023-03-04T21:56:54.976Z,40.87
2023-03-04T21:59:23.331Z,41.03
2023-03-04T22:01:51.284Z,41.05
2023-03-04T22:04:19.274Z,41.13
2023-03-04T22:06:47.154Z,40.77
2023-03-04T22:09:16.318Z,40.96
2023-03-04T22:11:44.052Z,40.99
2023-03-04T22:14:12.501Z,41.27
2023-03-04T22:16:53.958Z,41.09
2023-03-04T22:19:22.697Z,41.14
2023-03-04T22:21:51.336Z,41.07
2023-03-04T22:24:21.525Z,41.06
2023-03-04T22:26:49.768Z,41.11
2023-03-04T22:29:17.765Z,41.18
2023-03-04T22:31:46.521Z,41.24
2023-03-04T22:34:16.228Z,41.17
2023-03-04T22:36:46.124Z,41.23
2023-03-04T22:39:16.862Z,41.32
2023-03-04T22:41:46.767Z,41.38
2023-03-04T22:44:14.944Z,41.30
2023-03-04T22:46:43.676Z,41.34
2023-03-04T22:49:14.576Z,41.56
2023-03-04T22:51:44.398Z,41.38
2023-03-04T22:54:13.817Z,41.42
2023-03-04T22:56:41.926Z,41.45
2023-03-04T22:59:11.242Z,41.34
2023-03-04T23:01:39.066Z,41.50
2023-03-04T23:04:06.880Z,41.46
2023-03-04T23:06:34.745Z,41.55
2023-03-04T23:09:03.145Z,41.48
2023-03-04T23:11:32.989Z,41.51
2023-03-04T23:14:02.180Z,41.52
2023-03-04T23:16:33.027Z,41.59
2023-03-04T23:19:00.911Z,41.58
2023-03-04T23:21:33.734Z,41.73
2023-03-04T23:24:02.904Z,41.52
2023-03-04T23:26:33.361Z,41.56
2023-03-04T23:29:03.305Z,41.46
2023-03-04T23:31:34.104Z,41.55
2023-03-04T23:34:07.189Z,41.65
2023-03-04T23:36:37.341Z,41.53
2023-03-04T23:39:06.666Z,41.64
2023-03-04T23:41:35.326Z,41.66
2023-03-04T23:44:04.631Z,41.53
2023-03-04T23:46:34.144Z,41.68
2023-03-04T23:49:02.275Z,41.80
2023-03-04T23:51:31.440Z,41.64
2023-03-04T23:54:00.088Z,41.54
2023-03-04T23:56:31.150Z,41.53
2023-03-04T23:59:00.085Z,41.55
